Time;durP1;ratioP1;P1;durP2;ratioP2;P2;SDS_P1;SDS_P2;PMS_P1;PMS_P2;Temp;Humidity;BMP_temperature;BMP_pressure;BME280_temperature;BME280_humidity;BME280_pressure;Samples;Min_cycle;Max_cycle;Signal;HPM_P1;HPM_P2
2022/06/16 00:00:41;;;;;;;4.60;1.60;;;;;;;18.98;39.08;100184.22;4964446;28;20093;-63
2022/06/16 00:03:08;;;;;;;3.28;1.58;;;;;;;18.95;39.02;100175.63;4974748;28;20061;-62
2022/06/16 00:05:37;;;;;;;2.97;1.67;;;;;;;18.92;39.41;100167.88;4972406;28;20047;-63
2022/06/16 00:08:06;;;;;;;4.90;1.77;;;;;;;18.88;39.53;100165.47;4955148;28;20474;-66
2022/06/16 00:10:34;;;;;;;16.77;2.47;;;;;;;18.86;39.26;100159.44;4954809;28;20094;-62
2022/06/16 00:13:01;;;;;;;5.75;1.70;;;;;;;18.84;39.07;100160.56;4954919;28;20050;-61
2022/06/16 00:15:28;;;;;;;7.65;1.67;;;;;;;18.78;39.32;100156.59;4972036;28;20047;-62
2022/06/16 00:17:57;;;;;;;20.73;2.88;;;;;;;18.73;39.30;100148.97;4972195;28;20058;-62
2022/06/16 00:20:24;;;;;;;11.07;2.30;;;;;;;18.69;39.50;100147.53;4954705;28;20062;-63
2022/06/16 00:22:50;;;;;;;4.00;1.80;;;;;;;18.64;39.79;100147.09;4972350;28;20058;-62
2022/06/16 00:25:17;;;;;;;5.65;1.50;;;;;;;18.59;39.86;100147.50;4954779;28;20047;-60
2022/06/16 00:27:43;;;;;;;4.07;1.90;;;;;;;18.54;40.02;100144.34;4971835;28;20055;-64
2022/06/16 00:30:11;;;;;;;5.32;1.63;;;;;;;18.50;40.10;100140.25;4971507;28;20047;-62
2022/06/16 00:32:39;;;;;;;4.05;1.42;;;;;;;18.46;40.50;100145.00;4954498;28;20078;-62
2022/06/16 00:35:06;;;;;;;18.10;2.60;;;;;;;18.45;40.68;100145.13;4971855;28;20115;-62
2022/06/16 00:37:33;;;;;;;4.57;1.92;;;;;;;18.43;40.66;100142.59;4971731;28;20055;-60
2022/06/16 00:39:59;;;;;;;6.30;1.40;;;;;;;18.41;40.47;100149.03;4971481;28;20458;-62
2022/06/16 00:42:26;;;;;;;5.05;1.50;;;;;;;18.40;40.78;100150.88;4971984;28;20094;-63
2022/06/16 00:44:56;;;;;;;2.65;1.38;;;;;;;18.38;40.90;100143.97;4971800;28;20062;-61
2022/06/16 00:47:26;;;;;;;4.75;1.63;;;;;;;18.36;41.08;100146.78;4971831;28;20089;-62
2022/06/16 00:49:57;;;;;;;3.15;1.80;;;;;;;18.33;41.17;100137.22;4971584;28;20101;-61
2022/06/16 00:52:33;;;;;;;6.28;1.52;;;;;;;18.28;41.21;100144.72;4971905;28;20047;-60
2022/06/16 00:55:02;;;;;;;3.55;1.88;;;;;;;18.29;41.58;100142.91;4971541;28;20054;-61
2022/06/16 00:57:37;;;;;;;3.00;1.65;;;;;;;18.25;41.82;100133.47;4971699;28;20459;-61
2022/06/16 01:02:54;;;;;;;3.30;1.80;;;;;;;18.25;41.33;100138.81;4971675;28;20138;-63
2022/06/16 01:05:23;;;;;;;3.33;1.63;;;;;;;18.23;41.36;100141.59;4971443;28;20050;-61
2022/06/16 01:07:52;;;;;;;4.88;1.83;;;;;;;18.21;41.51;100143.56;4971770;28;20060;-61
2022/06/16 01:10:19;;;;;;;3.90;1.67;;;;;;;18.19;41.74;100150.81;4971367;28;20062;-62
2022/06/16 01:16:19;;;;;;;3.88;1.67;;;;;;;18.10;41.79;100152.44;4975329;28;20050;-61
2022/06/16 01:19:07;;;;;;;3.47;1.75;;;;;;;18.09;42.47;100146.25;4958204;28;20490;-60
2022/06/16 01:22:35;;;;;;;5.68;1.88;;;;;;;18.05;41.60;100150.13;4975153;28;20128;-61
2022/06/16 01:25:23;;;;;;;4.75;1.95;;;;;;;18.04;42.31;100142.25;4889306;29;20453;-61
2022/06/16 01:28:08;;;;;;;2.80;1.50;;;;;;;18.01;42.56;100137.19;4915182;29;20466;-61
2022/06/16 01:31:03;;;;;;;7.35;1.90;;;;;;;17.98;42.88;100133.78;4969120;28;20051;-60
2022/06/16 01:34:03;;;;;;;3.78;1.67;;;;;;;17.93;42.86;100137.81;4974638;28;20050;-62
2022/06/16 01:36:34;;;;;;;2.72;1.55;;;;;;;17.94;42.19;100134.19;4973573;28;20114;-62
2022/06/16 01:39:06;;;;;;;7.38;2.10;;;;;;;17.89;42.65;100139.88;4974856;28;20046;-61
2022/06/16 01:41:40;;;;;;;3.58;1.50;;;;;;;17.85;42.83;100151.75;4973782;28;20054;-64
2022/06/16 01:44:15;;;;;;;3.70;1.80;;;;;;;17.79;43.22;100161.09;4957633;28;20055;-63
2022/06/16 01:46:46;;;;;;;46.60;3.72;;;;;;;17.77;43.19;100167.50;4957859;28;20106;-61
2022/06/16 01:49:19;;;;;;;5.85;1.70;;;;;;;17.70;43.38;100184.00;4957269;28;20055;-60
2022/06/16 01:51:54;;;;;;;5.60;1.90;;;;;;;17.65;43.53;100182.66;4973571;28;20066;-61
2022/06/16 01:54:29;;;;;;;4.15;1.90;;;;;;;17.60;43.80;100169.72;4974807;28;20054;-61
2022/06/16 01:57:15;;;;;;;10.63;2.03;;;;;;;17.53;44.28;100163.22;4974505;28;20058;-62
2022/06/16 02:00:01;;;;;;;4.85;1.83;;;;;;;17.46;44.25;100160.19;4974341;28;20495;-62
2022/06/16 02:02:33;;;;;;;4.10;1.88;;;;;;;17.40;44.49;100156.19;4974669;28;20070;-64
2022/06/16 02:05:13;;;;;;;3.30;2.00;;;;;;;17.37;44.36;100142.28;4973307;28;20051;-60
2022/06/16 02:08:10;;;;;;;6.57;2.03;;;;;;;17.32;44.77;100132.84;4956930;28;20050;-62
2022/06/16 02:10:42;;;;;;;4.53;2.38;;;;;;;17.32;44.80;100132.84;4972899;28;20491;-61
2022/06/16 02:13:12;;;;;;;7.80;2.60;;;;;;;17.30;44.77;100134.78;4974613;28;20047;-61
2022/06/16 02:15:58;;;;;;;6.25;1.90;;;;;;;17.25;44.91;100144.97;4957497;28;20058;-61
2022/06/16 02:18:31;;;;;;;6.40;1.63;;;;;;;17.25;45.20;100144.09;4974185;28;20053;-61
2022/06/16 02:21:06;;;;;;;10.17;2.23;;;;;;;17.22;45.24;100136.34;4974365;28;20055;-61
2022/06/16 02:23:33;;;;;;;10.13;1.80;;;;;;;17.19;44.71;100145.44;4974084;28;20550;-61
2022/06/16 02:26:00;;;;;;;4.65;1.80;;;;;;;17.17;44.95;100148.22;4973244;28;20400;-61
2022/06/16 02:28:27;;;;;;;5.35;1.80;;;;;;;17.15;45.37;100147.50;4973869;28;20054;-61
2022/06/16 02:31:04;;;;;;;4.50;2.20;;;;;;;17.13;46.03;100148.59;4973846;28;20058;-60
2022/06/16 02:34:02;;;;;;;6.03;1.90;;;;;;;17.12;45.65;100152.22;4973948;28;20057;-62
2022/06/16 02:36:43;;;;;;;7.13;2.17;;;;;;;17.11;45.75;100162.00;4974088;28;20051;-62
2022/06/16 02:39:13;;;;;;;3.38;1.55;;;;;;;17.12;45.15;100162.84;4973276;28;20197;-62
2022/06/16 02:41:57;;;;;;;9.63;2.03;;;;;;;17.05;45.94;100173.97;4973807;28;20054;-61
2022/06/16 02:44:41;;;;;;;15.70;1.95;;;;;;;17.00;46.00;100177.91;4973626;28;20558;-61
2022/06/16 02:47:10;;;;;;;;;;;;;;;16.99;44.04;100176.22;4956788;28;20054;-61
2022/06/16 02:50:04;;;;;;;4.63;1.80;;;;;;;16.95;44.85;100167.63;4973298;28;20406;-61
2022/06/16 02:52:38;;;;;;;3.75;1.90;;;;;;;16.91;45.88;100164.38;4972218;28;20050;-64
2022/06/16 02:55:12;;;;;;;3.60;1.75;;;;;;;16.88;45.13;100161.94;4973200;28;20054;-61
2022/06/16 02:57:48;;;;;;;3.25;1.92;;;;;;;16.82;46.23;100177.53;4973498;28;20058;-62
2022/06/16 03:00:20;;;;;;;3.38;2.00;;;;;;;16.76;46.22;100177.03;4971837;28;20053;-60
2022/06/16 03:02:46;;;;;;;4.00;2.22;;;;;;;16.73;45.79;100179.94;4973403;28;20066;-60
2022/06/16 03:05:15;;;;;;;8.00;2.42;;;;;;;16.70;46.22;100179.31;4973240;28;20059;-62
2022/06/16 03:07:43;;;;;;;4.10;2.40;;;;;;;16.67;46.37;100181.22;4973312;28;20470;-61
2022/06/16 03:10:50;;;;;;;6.07;2.35;;;;;;;16.66;46.84;100182.22;4971568;28;20054;-63
2022/06/16 03:13:01;;;;;;;3.42;1.80;;;;;;;16.66;46.28;100189.31;4973366;28;20058;-60
2022/06/16 03:15:27;;;;;;;4.32;2.30;;;;;;;16.65;46.40;100192.94;4973208;28;20047;-61
2022/06/16 03:17:54;;;;;;;4.85;2.67;;;;;;;16.62;46.44;100188.72;4973458;28;20094;-61
2022/06/16 03:20:20;;;;;;;3.13;1.80;;;;;;;16.60;46.45;100184.47;4972838;28;20463;-61
2022/06/16 03:22:47;;;;;;;4.38;2.30;;;;;;;16.58;46.66;100189.91;4973053;28;20059;-61
2022/06/16 03:25:13;;;;;;;3.33;2.10;;;;;;;16.54;46.75;100188.44;4973065;28;20059;-62
2022/06/16 03:27:40;;;;;;;6.10;2.50;;;;;;;16.51;47.03;100191.31;4972971;28;20487;-61
2022/06/16 03:30:07;;;;;;;6.55;2.60;;;;;;;16.49;47.33;100195.94;4972587;28;20455;-61
2022/06/16 03:32:33;;;;;;;4.50;2.33;;;;;;;16.46;47.13;100201.47;4972583;28;20051;-63
2022/06/16 03:35:00;;;;;;;7.30;2.47;;;;;;;16.42;47.21;100192.88;4972766;28;20054;-62
2022/06/16 03:37:26;;;;;;;6.45;2.40;;;;;;;16.38;47.27;100207.34;4972599;28;20054;-61
2022/06/16 03:39:53;;;;;;;4.68;2.50;;;;;;;16.35;47.53;100204.91;4972520;28;20062;-61
2022/06/16 03:42:19;;;;;;;6.45;2.40;;;;;;;16.33;47.50;100212.16;4972859;28;20491;-63
2022/06/16 03:44:46;;;;;;;5.53;2.13;;;;;;;16.29;47.65;100208.88;4972895;28;20507;-61
2022/06/16 03:47:13;;;;;;;4.57;2.67;;;;;;;16.27;47.75;100216.13;4972819;28;20098;-60
2022/06/16 03:49:39;;;;;;;3.85;2.30;;;;;;;16.24;47.94;100214.53;4972511;28;20455;-61
2022/06/16 03:52:06;;;;;;;5.53;2.67;;;;;;;16.22;47.85;100218.28;4972227;28;20109;-64
2022/06/16 03:54:33;;;;;;;7.57;3.13;;;;;;;16.18;48.15;100217.63;4955621;28;20059;-60
2022/06/16 03:57:00;;;;;;;6.07;3.13;;;;;;;16.14;48.27;100217.03;4977542;28;20096;-62
2022/06/16 03:59:27;;;;;;;4.35;2.67;;;;;;;16.13;48.39;100217.13;4974912;28;20059;-62
2022/06/16 04:01:53;;;;;;;5.30;2.50;;;;;;;16.11;48.52;100227.84;4972234;28;20050;-61
2022/06/16 04:04:25;;;;;;;5.18;2.90;;;;;;;16.09;48.69;100218.31;4972310;28;20051;-61
2022/06/16 04:06:51;;;;;;;2.80;2.28;;;;;;;16.08;48.79;100221.94;4970592;28;20051;-60
2022/06/16 04:09:18;;;;;;;6.22;3.25;;;;;;;16.06;48.92;100221.19;4970943;28;20078;-61
2022/06/16 04:11:44;;;;;;;3.65;2.30;;;;;;;16.04;49.06;100228.41;4972255;28;20054;-61
2022/06/16 04:14:13;;;;;;;3.83;2.72;;;;;;;16.04;49.55;100231.94;4972161;28;20086;-63
2022/06/16 04:16:42;;;;;;;6.82;3.20;;;;;;;16.05;49.76;100238.94;4954752;28;20513;-61
2022/06/16 04:19:14;;;;;;;5.03;2.60;;;;;;;16.07;50.46;100252.94;4970602;28;20066;-61
2022/06/16 04:21:43;;;;;;;6.18;2.95;;;;;;;16.13;49.59;100252.50;4970503;28;20380;-60
2022/06/16 04:24:10;;;;;;;4.85;2.65;;;;;;;16.19;49.60;100251.22;4972148;28;20082;-60
2022/06/16 04:26:37;;;;;;;5.18;3.15;;;;;;;16.23;49.82;100259.81;4972112;28;20455;-62
2022/06/16 04:29:05;;;;;;;4.70;2.78;;;;;;;16.27;50.04;100266.59;4971773;28;20498;-62
2022/06/16 04:31:32;;;;;;;5.28;3.05;;;;;;;16.32;50.03;100267.09;4983185;28;20050;-60
2022/06/16 04:33:59;;;;;;;10.48;3.90;;;;;;;16.38;50.03;100268.47;4991170;28;20116;-61
2022/06/16 04:36:26;;;;;;;5.35;2.85;;;;;;;16.44;50.00;100273.31;4975354;28;20051;-63
2022/06/16 04:38:53;;;;;;;6.07;3.60;;;;;;;16.49;50.06;100268.50;4973560;28;20494;-61
2022/06/16 04:41:19;;;;;;;7.10;2.97;;;;;;;16.54;50.22;100269.03;4980791;28;20065;-61
2022/06/16 04:43:46;;;;;;;8.20;3.53;;;;;;;16.60;50.01;100269.53;4971812;28;20539;-61
2022/06/16 04:46:14;;;;;;;6.60;3.58;;;;;;;16.64;50.20;100266.50;4971666;28;20070;-61
2022/06/16 04:48:41;;;;;;;6.18;3.30;;;;;;;16.71;50.10;100276.69;4960324;28;20085;-60
2022/06/16 04:51:14;;;;;;;5.47;3.08;;;;;;;16.76;50.12;100282.53;4991313;28;20046;-60
2022/06/16 04:53:40;;;;;;;5.28;3.50;;;;;;;16.80;49.91;100287.50;4989938;28;20054;-61
2022/06/16 04:56:08;;;;;;;6.32;3.20;;;;;;;16.85;49.89;100288.97;4991011;28;20416;-64
2022/06/16 04:58:34;;;;;;;5.38;3.15;;;;;;;16.87;49.86;100295.88;4973552;28;20518;-61
2022/06/16 05:01:03;;;;;;;5.32;3.50;;;;;;;16.88;50.03;100292.25;4990969;28;20105;-61
2022/06/16 05:03:46;;;;;;;5.60;3.10;;;;;;;16.90;49.70;100289.47;4970893;28;20055;-61
2022/06/16 05:06:13;;;;;;;3.08;2.78;;;;;;;16.89;49.61;100275.31;4971559;28;20316;-61
2022/06/16 05:08:40;;;;;;;5.65;3.13;;;;;;;16.89;49.57;100271.78;4979132;28;20105;-63
2022/06/16 05:11:06;;;;;;;7.35;3.40;;;;;;;16.86;49.61;100272.88;4979820;28;20047;-61
2022/06/16 05:13:33;;;;;;;7.30;3.20;;;;;;;16.83;49.80;100267.81;4981044;28;20056;-61
2022/06/16 05:16:00;;;;;;;6.40;3.28;;;;;;;16.80;49.94;100274.22;4964405;28;20057;-64
2022/06/16 05:18:26;;;;;;;6.20;3.47;;;;;;;16.80;50.04;100283.97;4976483;28;20063;-62
2022/06/16 05:21:06;;;;;;;6.53;3.15;;;;;;;16.77;51.06;100281.53;4971293;28;20055;-61
2022/06/16 05:23:33;;;;;;;5.32;3.13;;;;;;;16.79;50.41;100279.63;4971488;28;20136;-65
2022/06/16 05:26:00;;;;;;;5.32;3.28;;;;;;;16.82;50.57;100286.53;4971416;28;20051;-68
2022/06/16 05:28:26;;;;;;;5.75;3.03;;;;;;;16.84;50.95;100289.91;4971155;28;20054;-61
2022/06/16 05:30:53;;;;;;;7.97;3.67;;;;;;;16.86;50.98;100290.66;4971411;28;20058;-61
2022/06/16 05:33:19;;;;;;;6.25;3.28;;;;;;;16.88;50.88;100288.72;4971440;28;20082;-61
2022/06/16 05:36:00;;;;;;;4.80;3.35;;;;;;;16.88;51.70;100286.91;4971404;28;20063;-63
2022/06/16 05:38:27;;;;;;;6.13;3.30;;;;;;;16.98;51.13;100305.69;4971277;28;20774;-62
2022/06/16 05:41:03;;;;;;;4.05;3.00;;;;;;;17.00;51.81;100298.44;4971849;28;20110;-61
2022/06/16 05:43:30;;;;;;;6.72;3.25;;;;;;;17.11;50.81;100296.78;4971394;28;20053;-62
2022/06/16 05:45:57;;;;;;;8.55;3.13;;;;;;;17.15;51.04;100296.47;4971383;28;20149;-62
2022/06/16 05:48:23;;;;;;;7.28;2.92;;;;;;;17.21;50.92;100300.47;4971160;28;20047;-62
2022/06/16 05:50:50;;;;;;;7.03;3.17;;;;;;;17.25;50.98;100306.38;4970233;28;20050;-61
2022/06/16 05:53:17;;;;;;;5.18;2.55;;;;;;;17.31;50.94;100301.44;4970634;28;20055;-63
2022/06/16 05:55:43;;;;;;;5.05;2.50;;;;;;;17.39;51.14;100308.00;4953277;28;20051;-62
2022/06/16 05:58:10;;;;;;;4.63;2.78;;;;;;;17.48;51.22;100311.75;4970417;28;20107;-61
2022/06/16 06:00:37;;;;;;;4.30;2.50;;;;;;;17.55;51.01;100307.66;4971806;28;20722;-61
2022/06/16 06:03:04;;;;;;;3.70;2.47;;;;;;;17.62;50.83;100310.69;4956514;28;20074;-62
2022/06/16 06:05:30;;;;;;;6.20;2.53;;;;;;;17.69;50.55;100322.56;4957034;28;20082;-61
2022/06/16 06:16:26;;;;;;;4.70;2.63;;;;;;;17.80;50.46;100335.84;4973768;28;20058;-62
2022/06/16 06:18:54;;;;;;;3.97;2.72;;;;;;;17.81;50.25;100336.72;4974008;28;20491;-61
2022/06/16 06:21:58;;;;;;;6.68;3.08;;;;;;;17.80;50.43;100340.34;4974049;28;20054;-61
2022/06/16 06:24:08;;;;;;;3.70;2.80;;;;;;;17.82;50.58;100346.38;4973987;28;20051;-64
2022/06/16 06:26:34;;;;;;;4.35;2.72;;;;;;;17.83;50.61;100348.94;4973788;28;20055;-62
2022/06/16 06:29:01;;;;;;;8.02;3.13;;;;;;;17.86;50.85;100344.34;4974247;28;20055;-61
2022/06/16 06:31:27;;;;;;;5.55;3.28;;;;;;;17.89;50.84;100352.94;4973669;28;20055;-63
2022/06/16 06:33:54;;;;;;;7.10;3.20;;;;;;;17.94;50.91;100360.59;4973803;28;20096;-63
2022/06/16 06:36:21;;;;;;;7.35;3.05;;;;;;;17.97;51.11;100365.66;4974327;28;20054;-62
2022/06/16 06:38:47;;;;;;;4.78;2.88;;;;;;;18.02;50.89;100370.63;4973582;28;20105;-62
2022/06/16 06:41:15;;;;;;;5.45;2.72;;;;;;;18.07;51.09;100355.97;4974295;28;20106;-62
2022/06/16 06:43:43;;;;;;;5.20;2.88;;;;;;;18.14;51.42;100347.50;4973786;28;20530;-61
2022/06/16 06:46:11;;;;;;;4.78;2.72;;;;;;;18.21;51.36;100357.56;4973844;28;20054;-62
2022/06/16 06:48:39;;;;;;;5.55;2.88;;;;;;;18.28;51.08;100362.41;4973638;28;20085;-63
2022/06/16 06:51:05;;;;;;;3.83;2.78;;;;;;;18.36;50.97;100365.31;4973584;28;20482;-61
2022/06/16 06:53:32;;;;;;;6.68;2.67;;;;;;;18.46;51.06;100360.06;4974199;28;20562;-61
2022/06/16 06:55:58;;;;;;;5.47;2.60;;;;;;;18.54;51.21;100362.13;4973726;28;20043;-62
2022/06/16 06:58:25;;;;;;;4.30;2.85;;;;;;;18.62;51.06;100368.50;4973348;28;20506;-61
2022/06/16 07:00:53;;;;;;;5.80;2.75;;;;;;;18.70;50.69;100370.56;4973409;28;20105;-62
2022/06/16 07:03:21;;;;;;;5.60;2.55;;;;;;;18.78;50.57;100380.59;4973486;28;20058;-64
2022/06/16 07:05:48;;;;;;;5.65;2.97;;;;;;;18.85;50.48;100375.59;4973378;28;20059;-63
2022/06/16 07:08:15;;;;;;;4.75;2.15;;;;;;;18.89;50.11;100380.53;4973199;28;20506;-61
2022/06/16 07:10:42;;;;;;;6.15;2.53;;;;;;;18.94;50.02;100382.84;4972867;28;20416;-64
2022/06/16 07:13:12;;;;;;;3.67;2.50;;;;;;;18.99;50.09;100398.50;4973212;28;20059;-62
2022/06/16 07:15:39;;;;;;;2.75;1.65;;;;;;;19.02;49.77;100395.53;4972191;28;20415;-62
2022/06/16 07:18:06;;;;;;;4.80;1.92;;;;;;;19.06;49.86;100393.53;4972416;28;20051;-62
2022/06/16 07:20:33;;;;;;;3.05;1.52;;;;;;;19.10;49.39;100394.97;4973512;28;20065;-62
2022/06/16 07:23:00;;;;;;;9.55;2.00;;;;;;;19.14;49.36;100394.56;4955976;28;20042;-61
2022/06/16 07:25:27;;;;;;;3.03;1.35;;;;;;;19.21;49.38;100394.91;4973338;28;20829;-61
2022/06/16 07:27:53;;;;;;;10.13;1.75;;;;;;;19.28;48.77;100387.22;4972882;28;20058;-62
2022/06/16 07:30:21;;;;;;;2.17;1.48;;;;;;;19.35;48.77;100385.75;4972275;28;20047;-61
2022/06/16 07:32:48;;;;;;;9.38;1.92;;;;;;;19.42;48.92;100395.88;4972963;28;20062;-62
2022/06/16 07:35:18;;;;;;;5.82;1.60;;;;;;;19.48;48.92;100398.06;4972838;28;20137;-61
2022/06/16 07:37:45;;;;;;;4.75;1.60;;;;;;;19.56;48.73;100394.72;4972647;28;20061;-62
2022/06/16 07:40:13;;;;;;;2.65;1.50;;;;;;;19.62;48.72;100395.03;4972643;28;20506;-62
2022/06/16 07:42:40;;;;;;;3.22;1.55;;;;;;;19.70;48.94;100394.38;4973087;28;20054;-61
2022/06/16 07:45:08;;;;;;;1.88;1.27;;;;;;;19.80;48.45;100402.47;4972797;28;20090;-64
2022/06/16 07:47:34;;;;;;;3.17;1.50;;;;;;;19.89;48.22;100396.31;4955315;28;20050;-62
2022/06/16 07:50:04;;;;;;;6.93;1.60;;;;;;;19.96;47.85;100404.63;4972396;28;20047;-64
2022/06/16 07:52:31;;;;;;;2.35;1.25;;;;;;;20.04;47.67;100404.03;4973082;28;20073;-62
2022/06/16 07:54:57;;;;;;;3.10;1.88;;;;;;;20.11;47.56;100407.84;4972572;28;20073;-63
2022/06/16 07:57:26;;;;;;;3.22;1.55;;;;;;;20.19;47.82;100401.84;4972370;28;20058;-62
2022/06/16 07:59:57;;;;;;;3.00;1.50;;;;;;;20.27;47.54;100403.84;4955012;28;20047;-62
2022/06/16 08:02:25;;;;;;;3.90;1.45;;;;;;;20.35;47.07;100411.16;4971855;28;20066;-63
2022/06/16 08:04:52;;;;;;;4.65;1.33;;;;;;;20.43;46.77;100408.66;4954890;28;20053;-61
2022/06/16 08:07:19;;;;;;;1.42;0.90;;;;;;;20.51;46.63;100416.00;4972089;28;20043;-61
2022/06/16 08:09:45;;;;;;;3.08;1.20;;;;;;;20.59;46.97;100407.31;4971578;28;20062;-61
2022/06/16 08:12:12;;;;;;;3.97;1.13;;;;;;;20.66;46.61;100411.97;4971829;28;20047;-62
2022/06/16 08:14:43;;;;;;;3.45;1.33;;;;;;;20.75;46.54;100407.59;4954683;28;20054;-64
2022/06/16 08:17:14;;;;;;;3.95;1.45;;;;;;;20.86;46.42;100409.31;4972306;28;20203;-62
2022/06/16 08:19:41;;;;;;;4.38;1.50;;;;;;;20.99;46.62;100416.25;4954906;28;20451;-61
2022/06/16 08:22:08;;;;;;;2.50;1.15;;;;;;;21.09;46.12;100414.47;4972228;28;20089;-64
2022/06/16 08:24:35;;;;;;;2.35;1.20;;;;;;;21.21;46.38;100409.81;4971634;28;20137;-62
2022/06/16 08:27:03;;;;;;;2.83;0.95;;;;;;;21.33;45.89;100415.84;4972071;28;20059;-65
2022/06/16 08:29:29;;;;;;;2.47;1.15;;;;;;;21.44;45.90;100422.88;4954533;28;20058;-62
2022/06/16 08:31:57;;;;;;;2.00;0.90;;;;;;;21.54;45.37;100425.56;4971982;28;20191;-64
2022/06/16 08:34:24;;;;;;;14.23;1.63;;;;;;;21.62;45.42;100431.06;4971682;28;20062;-62
2022/06/16 08:36:50;;;;;;;5.43;1.10;;;;;;;21.69;45.33;100429.50;4971927;28;20105;-64
2022/06/16 08:39:17;;;;;;;3.78;1.20;;;;;;;21.77;44.92;100433.31;4971111;28;20125;-62
2022/06/16 08:41:57;;;;;;;1.75;1.13;;;;;;;21.81;45.06;100426.66;4971619;28;20054;-62
2022/06/16 08:44:40;;;;;;;2.70;0.95;;;;;;;21.90;46.33;100423.13;4954635;28;20110;-61
2022/06/16 08:47:36;;;;;;;1.67;1.00;;;;;;;21.97;44.88;100416.19;4971830;28;20063;-62
2022/06/16 08:50:28;;;;;;;2.97;1.38;;;;;;;22.06;44.85;100417.16;4971631;28;20059;-66
2022/06/16 08:53:23;;;;;;;5.35;1.17;;;;;;;22.16;44.16;100418.97;4971968;28;20096;-62
2022/06/16 08:56:03;;;;;;;3.20;1.08;;;;;;;22.24;44.44;100414.53;4971602;28;20057;-62
2022/06/16 08:58:55;;;;;;;2.42;1.02;;;;;;;22.32;43.73;100411.09;4954425;28;20565;-61
2022/06/16 09:01:55;;;;;;;8.18;1.40;;;;;;;22.41;43.49;100411.19;4942252;28;20057;-62
2022/06/16 09:04:32;;;;;;;7.75;1.10;;;;;;;22.52;43.78;100416.38;4944809;28;20055;-62
2022/06/16 09:07:07;;;;;;;2.38;0.90;;;;;;;22.59;43.51;100414.81;4971694;28;20415;-64
2022/06/16 09:10:14;;;;;;;8.07;1.20;;;;;;;22.67;43.40;100399.78;4971547;28;20086;-63
2022/06/16 09:13:05;;;;;;;2.42;1.08;;;;;;;22.75;43.31;100399.88;4971610;28;20080;-61
2022/06/16 09:15:58;;;;;;;1.13;0.90;;;;;;;22.85;43.38;100406.03;4971543;28;20431;-61
2022/06/16 09:19:02;;;;;;;2.22;1.10;;;;;;;22.95;42.86;100415.88;4971591;28;20070;-64
2022/06/16 09:21:53;;;;;;;2.28;1.05;;;;;;;23.04;43.89;100415.78;4971674;28;20199;-62
2022/06/16 09:24:49;;;;;;;1.90;1.00;;;;;;;23.14;43.33;100413.00;4971618;28;20491;-63
2022/06/16 09:27:22;;;;;;;3.00;1.10;;;;;;;23.24;42.60;100420.13;4971577;28;20066;-64
2022/06/16 09:30:01;;;;;;;5.03;1.08;;;;;;;23.32;42.85;100424.75;4971632;28;20661;-61
2022/06/16 09:32:42;;;;;;;2.40;1.30;;;;;;;23.40;42.89;100422.16;4954257;28;20051;-62
2022/06/16 09:35:34;;;;;;;1.58;1.00;;;;;;;23.49;42.24;100417.69;4973845;28;20050;-61
2022/06/16 09:38:08;;;;;;;2.70;1.15;;;;;;;23.61;42.17;100420.97;4974937;28;20054;-62
2022/06/16 09:40:42;;;;;;;2.20;1.30;;;;;;;23.68;42.18;100422.03;4957627;28;20118;-63
2022/06/16 09:43:14;;;;;;;3.63;1.30;;;;;;;23.76;41.83;100426.59;4975266;28;20061;-61
2022/06/16 09:45:46;;;;;;;1.95;1.20;;;;;;;23.85;42.02;100428.34;4974841;28;20546;-61
2022/06/16 09:48:17;;;;;;;2.33;1.20;;;;;;;23.91;41.32;100437.63;4974714;28;20487;-62
2022/06/16 09:50:52;;;;;;;2.35;1.02;;;;;;;23.99;41.48;100431.47;4975191;28;20050;-61
2022/06/16 09:53:19;;;;;;;3.83;1.40;;;;;;;24.10;41.15;100427.66;4957691;28;20047;-61
2022/06/16 09:55:54;;;;;;;3.88;1.48;;;;;;;24.17;41.25;100444.88;4974850;28;20050;-61
2022/06/16 09:58:34;;;;;;;2.45;1.05;;;;;;;24.26;40.91;100446.59;4974594;28;20050;-62
2022/06/16 10:01:07;;;;;;;37.72;2.58;;;;;;;24.37;40.67;100448.16;4974927;28;20054;-62
2022/06/16 10:03:49;;;;;;;2.03;0.90;;;;;;;24.46;41.00;100443.66;4974628;28;20051;-61
2022/06/16 10:06:30;;;;;;;2.90;1.20;;;;;;;24.54;40.68;100449.06;4974678;28;20057;-62
2022/06/16 10:09:23;;;;;;;4.45;1.77;;;;;;;24.58;40.97;100444.19;4974420;28;20480;-64
2022/06/16 10:12:00;;;;;;;6.70;1.88;;;;;;;24.67;40.25;100455.84;4974580;28;20058;-60
2022/06/16 10:14:38;;;;;;;2.10;1.20;;;;;;;24.74;40.11;100456.88;4974553;28;20137;-62
2022/06/16 10:17:09;;;;;;;3.13;1.00;;;;;;;24.85;41.06;100453.91;4956974;28;20054;-62
2022/06/16 10:19:43;;;;;;;4.80;1.33;;;;;;;24.95;40.24;100452.91;4956685;28;20043;-61
2022/06/16 10:22:13;;;;;;;2.50;1.05;;;;;;;25.10;40.20;100464.75;4957266;28;20089;-60
2022/06/16 10:25:09;;;;;;;4.78;1.48;;;;;;;25.20;39.89;100469.94;4974156;28;20130;-63
2022/06/16 10:27:44;;;;;;;5.32;1.45;;;;;;;25.36;39.94;100477.22;4974143;28;20055;-61
2022/06/16 10:30:21;;;;;;;4.82;1.20;;;;;;;25.47;39.79;100481.44;4974130;28;20058;-62
2022/06/16 10:33:00;;;;;;;4.38;1.08;;;;;;;25.60;39.61;100491.75;4973941;28;20558;-61
2022/06/16 10:35:27;;;;;;;1.35;1.05;;;;;;;25.75;39.58;100483.81;4956701;28;20054;-60
2022/06/16 10:37:55;;;;;;;3.08;1.00;;;;;;;25.89;39.95;100487.69;4973945;28;20047;-61
2022/06/16 10:40:36;;;;;;;7.15;1.60;;;;;;;26.10;39.71;100486.31;4973680;28;20054;-62
2022/06/16 10:43:25;;;;;;;1.73;1.10;;;;;;;26.47;40.21;100488.56;4959637;28;20051;-64
2022/06/16 10:46:08;;;;;;;2.70;1.02;;;;;;;26.79;38.88;100490.28;4956843;28;20050;-62
2022/06/16 10:48:37;;;;;;;5.63;1.30;;;;;;;27.16;38.91;100492.47;4973578;28;20061;-62
2022/06/16 10:51:18;;;;;;;3.33;1.48;;;;;;;27.50;37.38;100502.00;4973712;28;20054;-62
2022/06/16 10:54:02;;;;;;;1.90;1.27;;;;;;;27.87;37.08;100490.56;4956722;28;20471;-61
2022/06/16 10:56:29;;;;;;;1.88;1.25;;;;;;;28.31;36.86;100492.50;4956520;28;20474;-61
2022/06/16 10:59:14;;;;;;;2.40;1.30;;;;;;;28.75;35.81;100484.53;4973532;28;20101;-61
2022/06/16 11:01:50;;;;;;;6.32;1.50;;;;;;;29.25;36.29;100487.38;4973162;28;20058;-63
2022/06/16 11:04:21;;;;;;;2.75;1.25;;;;;;;29.77;34.60;100483.66;4973656;28;20463;-61
2022/06/16 11:06:52;;;;;;;2.70;1.38;;;;;;;30.25;34.40;100484.84;4973430;28;20051;-64
2022/06/16 11:09:24;;;;;;;2.45;1.40;;;;;;;30.71;33.75;100491.53;4956014;28;20121;-61
2022/06/16 11:12:13;;;;;;;3.33;1.20;;;;;;;31.17;33.40;100500.88;4973363;28;20487;-62
2022/06/16 11:14:52;;;;;;;4.68;1.23;;;;;;;31.66;32.73;100508.06;4973234;28;20837;-61
2022/06/16 11:17:25;;;;;;;3.83;1.45;;;;;;;31.92;30.46;100506.41;4973604;28;20645;-62
2022/06/16 11:20:01;;;;;;;2.03;1.05;;;;;;;32.03;30.48;100510.38;4972983;28;20081;-62
2022/06/16 11:22:35;;;;;;;5.68;1.50;;;;;;;32.13;30.83;100512.66;4973314;28;20076;-62
2022/06/16 11:25:21;;;;;;;3.70;1.45;;;;;;;32.22;30.68;100514.09;4973307;28;20055;-64
2022/06/16 11:27:56;;;;;;;1.73;0.90;;;;;;;32.39;30.11;100514.47;4972927;28;20058;-62
2022/06/16 11:30:28;;;;;;;2.58;1.05;;;;;;;32.52;28.98;100512.78;4972826;28;20069;-61
2022/06/16 11:32:55;;;;;;;2.30;1.33;;;;;;;32.66;30.29;100510.84;4972553;28;20050;-62
2022/06/16 11:35:33;;;;;;;7.78;1.33;;;;;;;32.79;29.52;100508.06;4972551;28;20078;-61
2022/06/16 11:38:16;;;;;;;6.38;1.70;;;;;;;32.98;30.87;100511.72;4972798;28;20054;-61
2022/06/16 11:40:50;;;;;;;2.15;1.10;;;;;;;33.26;29.46;100513.25;4972654;28;20137;-62
2022/06/16 11:43:17;;;;;;;1.38;0.88;;;;;;;33.49;29.49;100514.53;4973146;28;20412;-62
2022/06/16 11:46:11;;;;;;;2.05;1.00;;;;;;;33.47;27.97;100522.13;4972445;28;20569;-61
2022/06/16 11:49:28;;;;;;;2.25;0.90;;;;;;;33.31;28.39;100523.50;4955513;28;20110;-62
2022/06/16 11:52:01;;;;;;;3.47;1.10;;;;;;;33.11;28.08;100516.28;4949986;28;20051;-61
2022/06/16 11:54:27;;;;;;;3.33;1.15;;;;;;;32.92;27.76;100519.94;4972792;28;20102;-62
2022/06/16 11:57:02;;;;;;;2.38;1.15;;;;;;;32.66;28.68;100519.03;4972201;28;20505;-63
2022/06/16 11:59:49;;;;;;;1.40;1.00;;;;;;;32.51;29.10;100517.38;4954620;28;20129;-64
2022/06/16 12:02:25;;;;;;;1.95;1.13;;;;;;;32.58;29.04;100510.03;4972644;28;20051;-62
2022/06/16 12:05:02;;;;;;;1.38;0.70;;;;;;;32.55;28.83;100510.44;4972551;28;20566;-62